createdAt,value
2018-07-06T00:00:50.120Z,62.50
2018-07-06T00:01:50.298Z,46.88
2018-07-06T00:02:50.484Z,47.36
2018-07-06T00:03:50.664Z,48.58
2018-07-06T00:04:50.851Z,46.88
2018-07-06T00:05:51.041Z,56.15
2018-07-06T00:06:51.222Z,46.88
2018-07-06T00:07:51.390Z,48.58
2018-07-06T00:08:51.584Z,49.32
2018-07-06T00:09:51.756Z,48.58
2018-07-06T00:11:52.132Z,46.63
2018-07-06T00:12:52.315Z,47.12
2018-07-06T00:13:52.498Z,47.12
2018-07-06T00:14:52.689Z,45.90
2018-07-06T00:15:52.878Z,48.10
2018-07-06T00:16:53.047Z,52.98
2018-07-06T00:17:53.234Z,61.52
2018-07-06T00:18:53.411Z,49.80
2018-07-06T00:19:53.600Z,47.85
2018-07-06T00:20:53.817Z,51.27
2018-07-06T00:21:53.971Z,65.67
2018-07-06T00:22:54.139Z,74.46
2018-07-06T00:23:54.321Z,56.88
2018-07-06T00:24:54.507Z,50.29
2018-07-06T00:25:54.690Z,45.41
2018-07-06T00:26:54.866Z,46.14
2018-07-06T00:27:55.049Z,51.03
2018-07-06T00:28:55.226Z,54.20
2018-07-06T00:29:55.417Z,56.40
2018-07-06T00:30:55.596Z,47.12
2018-07-06T00:31:55.784Z,48.10
2018-07-06T00:32:55.959Z,48.83
2018-07-06T00:33:56.140Z,46.63
2018-07-06T00:34:56.607Z,47.12
2018-07-06T00:35:56.508Z,47.85
2018-07-06T00:36:56.694Z,50.54
2018-07-06T00:37:56.887Z,47.36
2018-07-06T00:38:57.077Z,46.63
2018-07-06T00:39:57.283Z,49.32
2018-07-06T00:40:57.450Z,48.58
2018-07-06T00:41:57.910Z,45.90
2018-07-06T00:42:57.817Z,50.54
2018-07-06T00:43:57.996Z,55.18
2018-07-06T00:45:58.365Z,45.65
2018-07-06T00:46:58.553Z,45.17
2018-07-06T00:47:58.730Z,45.90
2018-07-06T00:48:58.906Z,46.14
2018-07-06T00:49:59.083Z,47.61
2018-07-06T00:50:59.272Z,49.56
2018-07-06T00:51:59.477Z,50.29
2018-07-06T00:52:59.655Z,57.13
2018-07-06T00:53:59.839Z,46.39
2018-07-06T00:55:00.021Z,46.63
2018-07-06T00:56:00.202Z,45.90
2018-07-06T00:57:00.375Z,55.18
2018-07-06T00:58:00.570Z,46.14
2018-07-06T00:59:00.745Z,46.63
2018-07-06T01:00:00.927Z,47.61
2018-07-06T01:01:01.115Z,45.41
2018-07-06T01:02:01.299Z,47.61
2018-07-06T01:03:01.489Z,46.14
2018-07-06T01:04:01.673Z,47.61
2018-07-06T01:05:01.851Z,46.14
2018-07-06T01:06:02.046Z,49.32
2018-07-06T01:07:02.235Z,45.41
2018-07-06T01:08:02.428Z,45.90
2018-07-06T01:09:02.598Z,46.39
2018-07-06T01:10:02.816Z,47.61
2018-07-06T01:11:02.982Z,56.15
2018-07-06T01:12:03.156Z,45.41
2018-07-06T01:13:03.344Z,50.29
2018-07-06T01:14:03.526Z,46.14
2018-07-06T01:15:03.721Z,64.21
2018-07-06T01:17:04.088Z,45.90
2018-07-06T01:18:04.265Z,45.41
2018-07-06T01:19:04.429Z,50.78
2018-07-06T01:20:04.617Z,46.88
2018-07-06T01:21:04.810Z,47.12
2018-07-06T01:22:04.986Z,45.17
2018-07-06T01:23:05.215Z,49.07
2018-07-06T01:24:05.366Z,47.12
2018-07-06T01:25:05.543Z,45.17
2018-07-06T01:26:05.723Z,53.96
2018-07-06T01:27:05.907Z,45.65
2018-07-06T01:28:06.081Z,45.65
2018-07-06T01:29:06.265Z,47.61
2018-07-06T01:30:06.448Z,44.68
2018-07-06T01:31:06.632Z,44.68
2018-07-06T01:32:06.813Z,45.65
2018-07-06T01:33:06.991Z,45.65
2018-07-06T01:34:07.178Z,48.34
2018-07-06T01:35:07.375Z,44.92
2018-07-06T01:36:07.541Z,47.85
2018-07-06T01:37:07.725Z,45.17
2018-07-06T01:38:07.908Z,44.92
2018-07-06T01:39:08.095Z,48.58
2018-07-06T01:40:08.275Z,45.90
2018-07-06T01:41:08.464Z,54.20
2018-07-06T01:42:08.649Z,46.14
2018-07-06T01:43:08.827Z,46.88
2018-07-06T01:44:09.011Z,49.07
2018-07-06T01:45:09.197Z,55.91
2018-07-06T01:46:09.386Z,79.35
2018-07-06T01:47:09.856Z,63.72
2018-07-06T01:48:09.742Z,50.29
2018-07-06T01:49:09.931Z,61.52
2018-07-06T01:50:10.111Z,45.41
2018-07-06T01:51:10.302Z,48.58
2018-07-06T01:52:10.491Z,47.12
2018-07-06T01:53:10.667Z,47.12
2018-07-06T01:54:10.848Z,45.41
2018-07-06T01:55:11.036Z,49.32
2018-07-06T01:56:11.212Z,52.25
2018-07-06T01:57:11.400Z,45.17
2018-07-06T01:58:11.584Z,62.99
2018-07-06T01:59:11.768Z,45.90
2018-07-06T02:00:11.952Z,47.85
2018-07-06T02:01:12.132Z,47.36
2018-07-06T02:02:12.317Z,47.12
2018-07-06T02:03:12.500Z,56.64
2018-07-06T02:04:12.679Z,50.29
2018-07-06T02:05:12.862Z,50.54
2018-07-06T02:06:13.047Z,54.44
2018-07-06T02:07:13.239Z,55.66
2018-07-06T02:08:13.419Z,50.05
2018-07-06T02:09:13.605Z,45.41
2018-07-06T02:10:13.788Z,55.42
2018-07-06T02:11:13.966Z,45.65
2018-07-06T02:12:14.160Z,44.92
2018-07-06T02:13:14.343Z,49.80
2018-07-06T02:14:14.527Z,72.51
2018-07-06T02:15:14.711Z,58.35
2018-07-06T02:16:14.910Z,44.68
2018-07-06T02:17:15.081Z,48.83
2018-07-06T02:18:15.267Z,45.65
2018-07-06T02:19:15.446Z,55.42
2018-07-06T02:20:15.631Z,51.51
2018-07-06T02:21:15.814Z,45.65
2018-07-06T02:22:15.998Z,47.12
2018-07-06T02:23:16.182Z,55.18
2018-07-06T02:24:16.362Z,51.03
2018-07-06T02:25:16.551Z,53.22
2018-07-06T02:26:16.734Z,48.34
2018-07-06T02:27:16.922Z,48.58
2018-07-06T02:28:17.121Z,59.33
2018-07-06T02:29:17.284Z,43.95
2018-07-06T02:30:17.463Z,48.83
2018-07-06T02:31:17.648Z,54.69
2018-07-06T02:32:17.832Z,63.96
2018-07-06T02:33:18.016Z,46.39
2018-07-06T02:34:18.199Z,50.29
2018-07-06T02:35:18.382Z,56.88
2018-07-06T02:36:18.558Z,44.19
2018-07-06T02:37:18.741Z,47.36
2018-07-06T02:38:18.934Z,43.95
2018-07-06T02:39:19.117Z,55.42
2018-07-06T02:40:19.304Z,44.43
2018-07-06T02:41:19.482Z,49.32
2018-07-06T02:42:19.900Z,49.07
2018-07-06T02:43:19.851Z,46.63
2018-07-06T02:44:20.027Z,45.90
2018-07-06T02:45:20.212Z,43.46
2018-07-06T02:46:20.395Z,50.29
2018-07-06T02:47:20.576Z,59.08
2018-07-06T02:48:20.755Z,58.35
2018-07-06T02:49:20.936Z,62.26
2018-07-06T02:50:21.125Z,55.66
2018-07-06T02:51:21.301Z,54.69
2018-07-06T02:52:21.488Z,57.37
2018-07-06T02:53:21.673Z,57.86
2018-07-06T02:54:21.859Z,67.63
2018-07-06T02:55:22.036Z,58.84
2018-07-06T02:56:22.212Z,63.48
2018-07-06T02:57:22.428Z,53.22
2018-07-06T02:58:22.604Z,53.96
2018-07-06T02:59:22.783Z,63.48
2018-07-06T03:00:22.979Z,51.76
2018-07-06T03:01:23.168Z,53.47
2018-07-06T03:02:23.328Z,56.15
2018-07-06T03:03:23.524Z,56.40
2018-07-06T03:04:23.701Z,54.69
2018-07-06T03:05:23.886Z,59.08
2018-07-06T03:06:24.309Z,62.99
2018-07-06T03:07:24.253Z,55.91
2018-07-06T03:08:24.432Z,56.88
2018-07-06T03:09:24.618Z,55.18
2018-07-06T03:10:24.792Z,54.20
2018-07-06T03:11:24.968Z,53.22
2018-07-06T03:12:25.173Z,73.00
2018-07-06T03:13:25.339Z,69.34
2018-07-06T03:14:25.526Z,58.84
2018-07-06T03:15:25.705Z,70.07
2018-07-06T03:16:25.894Z,69.82
2018-07-06T03:17:26.079Z,69.09
2018-07-06T03:18:26.260Z,70.56
2018-07-06T03:19:26.454Z,74.95
2018-07-06T03:20:26.625Z,68.60
2018-07-06T03:21:26.809Z,56.64
2018-07-06T03:22:27.001Z,70.07
2018-07-06T03:23:27.184Z,68.85
2018-07-06T03:24:27.353Z,54.20
2018-07-06T03:25:27.535Z,51.76
2018-07-06T03:26:27.719Z,58.84
2018-07-06T03:27:27.900Z,67.63
2018-07-06T03:28:28.385Z,68.60
2018-07-06T03:29:28.264Z,60.06
2018-07-06T03:30:28.459Z,54.20
2018-07-06T03:31:28.640Z,55.42
2018-07-06T03:32:28.826Z,55.91
2018-07-06T03:33:29.000Z,57.86
2018-07-06T03:34:29.172Z,58.11
2018-07-06T03:35:29.357Z,62.01
2018-07-06T03:36:29.536Z,63.23
2018-07-06T03:37:29.719Z,57.86
2018-07-06T03:38:29.907Z,58.84
2018-07-06T03:39:30.090Z,69.09
2018-07-06T03:40:30.283Z,59.33
2018-07-06T03:41:30.461Z,57.37
2018-07-06T03:42:30.645Z,58.84
2018-07-06T03:43:30.829Z,53.96
2018-07-06T03:44:31.017Z,55.66
2018-07-06T03:45:31.185Z,57.37
2018-07-06T03:46:31.345Z,62.99
2018-07-06T03:47:31.529Z,60.30
2018-07-06T03:48:31.710Z,59.57
2018-07-06T03:49:31.892Z,65.19
2018-07-06T03:50:32.109Z,56.64
2018-07-06T03:51:32.252Z,47.85
2018-07-06T03:52:32.439Z,53.96
2018-07-06T03:53:32.617Z,70.07
2018-07-06T03:54:32.798Z,68.60
2018-07-06T03:55:32.983Z,55.42
2018-07-06T03:56:33.166Z,55.42
2018-07-06T03:57:33.355Z,57.62
2018-07-06T03:58:33.531Z,56.40
2018-07-06T03:59:33.716Z,59.08
2018-07-06T04:00:33.896Z,66.65
2018-07-06T04:01:34.077Z,57.13
2018-07-06T04:02:34.258Z,57.86
2018-07-06T04:03:34.445Z,56.15
2018-07-06T04:04:34.625Z,65.19
2018-07-06T04:05:34.805Z,55.91
2018-07-06T04:06:35.000Z,65.67
2018-07-06T04:07:35.174Z,65.92
2018-07-06T04:08:35.358Z,63.23
2018-07-06T04:09:35.530Z,55.91
2018-07-06T04:10:35.720Z,68.12
2018-07-06T04:11:35.902Z,57.86
2018-07-06T04:12:36.085Z,55.42
2018-07-06T04:13:36.266Z,58.35
2018-07-06T04:14:36.453Z,66.41
2018-07-06T04:15:36.631Z,76.90
2018-07-06T04:16:36.815Z,69.09
2018-07-06T04:17:36.999Z,67.14
2018-07-06T04:18:37.191Z,66.65
2018-07-06T04:19:37.362Z,54.69
2018-07-06T04:20:37.545Z,63.23
2018-07-06T04:21:37.742Z,62.74
2018-07-06T04:22:37.909Z,60.79
2018-07-06T04:23:38.092Z,62.26
2018-07-06T04:24:38.296Z,58.35
2018-07-06T04:25:38.460Z,63.96
2018-07-06T04:26:38.639Z,57.37
2018-07-06T04:27:38.823Z,64.21
2018-07-06T04:28:39.017Z,54.69
2018-07-06T04:29:39.195Z,59.81
2018-07-06T04:30:39.379Z,65.19
2018-07-06T04:31:39.562Z,54.69
2018-07-06T04:32:39.747Z,60.55
2018-07-06T04:33:39.986Z,60.30
2018-07-06T04:34:40.112Z,60.30
2018-07-06T04:35:40.300Z,64.94
2018-07-06T04:36:40.487Z,72.75
2018-07-06T04:37:40.666Z,75.44
2018-07-06T04:38:40.848Z,60.30
2018-07-06T04:39:41.036Z,60.79
2018-07-06T04:40:41.225Z,67.63
2018-07-06T04:41:41.413Z,59.81
2018-07-06T04:42:41.600Z,67.14
2018-07-06T04:43:41.788Z,58.11
2018-07-06T04:44:41.969Z,59.57
2018-07-06T04:45:42.171Z,67.63
2018-07-06T04:46:42.365Z,63.96
2018-07-06T04:47:42.540Z,56.88
2018-07-06T04:48:42.728Z,55.18
2018-07-06T04:49:42.906Z,62.50
2018-07-06T04:50:43.112Z,56.88
2018-07-06T04:51:43.295Z,54.93
2018-07-06T04:52:43.473Z,58.35
2018-07-06T04:53:43.653Z,66.65
2018-07-06T04:54:43.838Z,66.65
2018-07-06T04:55:44.030Z,80.08
2018-07-06T04:56:44.215Z,73.24
2018-07-06T04:57:44.393Z,63.96
2018-07-06T04:58:44.572Z,63.48
2018-07-06T04:59:44.754Z,67.63
2018-07-06T05:00:44.943Z,74.95
2018-07-06T05:01:45.143Z,77.39
2018-07-06T05:02:45.335Z,80.57
2018-07-06T05:03:45.515Z,78.13
2018-07-06T05:04:45.719Z,78.37
2018-07-06T05:05:45.893Z,77.64
2018-07-06T05:06:46.343Z,77.39
2018-07-06T05:07:46.389Z,63.48
2018-07-06T05:08:46.491Z,61.28
2018-07-06T05:09:46.675Z,67.14
2018-07-06T05:10:46.851Z,80.32
2018-07-06T05:11:47.063Z,66.65
2018-07-06T05:12:47.266Z,63.96
2018-07-06T05:13:47.459Z,66.89
2018-07-06T05:14:47.645Z,64.94
2018-07-06T05:15:47.845Z,71.04
2018-07-06T05:16:48.086Z,71.53
2018-07-06T05:17:48.195Z,79.59
2018-07-06T05:18:48.384Z,66.41
2018-07-06T05:19:48.557Z,60.79
2018-07-06T05:20:48.762Z,74.22
2018-07-06T05:21:48.948Z,66.16
2018-07-06T05:22:49.133Z,69.82
2018-07-06T05:23:49.333Z,61.04
2018-07-06T05:24:49.509Z,76.42
2018-07-06T05:25:49.720Z,66.65
2018-07-06T05:26:49.912Z,67.87
2018-07-06T05:27:50.103Z,64.70
2018-07-06T05:28:50.289Z,74.46
2018-07-06T05:29:50.491Z,62.99
2018-07-06T05:30:50.657Z,65.67
2018-07-06T05:31:50.849Z,69.82
2018-07-06T05:32:51.034Z,77.39
2018-07-06T05:33:51.221Z,71.29
2018-07-06T05:34:51.407Z,63.96
2018-07-06T05:35:51.598Z,69.58
2018-07-06T05:36:51.783Z,71.29
2018-07-06T05:37:52.042Z,69.34
2018-07-06T05:38:52.163Z,62.26
2018-07-06T05:39:52.348Z,70.07
2018-07-06T05:40:52.533Z,68.60
2018-07-06T05:41:52.717Z,67.63
2018-07-06T05:42:52.919Z,71.29
2018-07-06T05:43:53.282Z,64.94
2018-07-06T05:44:53.270Z,65.43
2018-07-06T05:45:53.450Z,63.96
2018-07-06T05:46:54.405Z,67.38
2018-07-06T05:47:53.812Z,64.94
2018-07-06T05:48:54.004Z,66.41
2018-07-06T05:49:54.183Z,77.64
2018-07-06T05:50:54.366Z,69.58
2018-07-06T05:51:54.546Z,71.78
2018-07-06T05:52:54.754Z,66.89
2018-07-06T05:53:54.915Z,70.07
2018-07-06T05:54:55.096Z,72.02
2018-07-06T05:55:55.282Z,71.53
2018-07-06T05:56:55.467Z,80.57
2018-07-06T05:57:55.665Z,72.02
2018-07-06T05:58:56.100Z,68.36
2018-07-06T05:59:56.033Z,64.70
2018-07-06T06:00:56.214Z,68.36
2018-07-06T06:01:56.393Z,81.30
2018-07-06T06:02:56.580Z,59.33
2018-07-06T06:03:56.774Z,72.27
2018-07-06T06:04:56.958Z,64.70
2018-07-06T06:05:57.159Z,64.70
2018-07-06T06:06:57.347Z,59.33
2018-07-06T06:07:57.536Z,60.30
2018-07-06T06:08:57.721Z,64.94
2018-07-06T06:09:57.917Z,65.67
2018-07-06T06:10:58.110Z,73.49
2018-07-06T06:11:58.300Z,62.01
2018-07-06T06:12:58.496Z,61.28
2018-07-06T06:13:58.699Z,68.60
2018-07-06T06:14:58.866Z,62.50
2018-07-06T06:15:59.069Z,59.57
2018-07-06T06:16:59.262Z,61.52
2018-07-06T06:17:59.454Z,60.79
2018-07-06T06:18:59.635Z,67.38
2018-07-06T06:19:59.835Z,59.81
2018-07-06T06:21:00.014Z,62.01
2018-07-06T06:22:00.200Z,59.33
2018-07-06T06:23:00.379Z,65.92
2018-07-06T06:24:00.574Z,70.07
2018-07-06T06:25:00.765Z,62.50
2018-07-06T06:26:00.956Z,65.19
2018-07-06T06:27:01.138Z,67.63
2018-07-06T06:28:01.350Z,65.19
2018-07-06T06:29:01.489Z,58.84
2018-07-06T06:30:01.680Z,62.99
2018-07-06T06:31:01.866Z,66.65
2018-07-06T06:32:02.046Z,63.96
2018-07-06T06:33:02.293Z,62.99
2018-07-06T06:34:02.436Z,69.58
2018-07-06T06:35:02.611Z,65.67
2018-07-06T06:36:02.801Z,63.23
2018-07-06T06:37:02.999Z,73.24
2018-07-06T06:38:03.201Z,67.38
2018-07-06T06:39:03.388Z,63.72
2018-07-06T06:40:03.571Z,63.96
2018-07-06T06:41:03.758Z,64.94
2018-07-06T06:42:03.943Z,62.50
2018-07-06T06:43:04.117Z,63.48
2018-07-06T06:44:04.305Z,76.66
2018-07-06T06:45:04.490Z,65.19
2018-07-06T06:46:04.685Z,60.55
2018-07-06T06:47:04.895Z,65.19
2018-07-06T06:48:05.077Z,66.41
2018-07-06T06:49:05.238Z,65.19
2018-07-06T06:50:05.448Z,64.94
2018-07-06T06:51:05.616Z,63.23
2018-07-06T06:52:05.802Z,62.50
2018-07-06T06:53:06.042Z,64.21
2018-07-06T06:54:06.177Z,58.35
2018-07-06T06:55:06.472Z,58.35
2018-07-06T06:56:06.622Z,60.55
2018-07-06T06:57:06.795Z,61.04
2018-07-06T06:58:07.008Z,57.62
2018-07-06T06:59:07.213Z,62.01
2018-07-06T07:00:07.356Z,62.74
2018-07-06T07:01:07.604Z,63.48
2018-07-06T07:02:07.774Z,61.77
2018-07-06T07:03:07.913Z,61.04
2018-07-06T07:04:08.142Z,60.55
2018-07-06T07:05:08.268Z,60.06
2018-07-06T07:06:08.455Z,64.21
2018-07-06T07:07:08.614Z,62.01
2018-07-06T07:08:08.808Z,63.96
2018-07-06T07:09:08.976Z,63.48
2018-07-06T07:10:09.142Z,66.65
2018-07-06T07:11:09.320Z,60.79
2018-07-06T07:12:09.490Z,67.87
2018-07-06T07:13:09.673Z,58.84
2018-07-06T07:14:09.889Z,60.30
2018-07-06T07:15:10.092Z,62.26
2018-07-06T07:16:10.248Z,65.92
2018-07-06T07:17:10.431Z,62.50
2018-07-06T07:18:10.601Z,67.63
2018-07-06T07:19:10.786Z,67.14
2018-07-06T07:20:10.958Z,61.28
2018-07-06T07:21:11.139Z,60.30
2018-07-06T07:22:11.354Z,62.74
2018-07-06T07:23:11.545Z,63.48
2018-07-06T07:24:11.796Z,61.52
2018-07-06T07:25:11.924Z,66.89
2018-07-06T07:26:12.129Z,64.45
2018-07-06T07:27:12.282Z,64.70
2018-07-06T07:28:12.454Z,61.52
2018-07-06T07:29:12.653Z,60.79
2018-07-06T07:30:12.921Z,61.52
2018-07-06T07:31:12.991Z,86.43
2018-07-06T07:32:13.178Z,73.97
2018-07-06T07:33:13.405Z,65.67
2018-07-06T07:34:13.503Z,66.89
2018-07-06T07:35:13.700Z,68.12
2018-07-06T07:36:13.893Z,79.83
2018-07-06T07:37:14.113Z,61.77
2018-07-06T07:38:14.252Z,71.78
2018-07-06T07:39:14.429Z,62.01
2018-07-06T07:40:14.633Z,69.09
2018-07-06T07:41:14.814Z,70.31
2018-07-06T07:42:15.007Z,61.52
2018-07-06T07:43:15.177Z,69.09
2018-07-06T07:44:15.327Z,64.94
2018-07-06T07:45:15.526Z,74.71
2018-07-06T07:46:15.709Z,82.76
2018-07-06T07:47:15.909Z,64.21
2018-07-06T07:48:16.061Z,61.28
2018-07-06T07:49:16.221Z,63.23
2018-07-06T07:50:16.400Z,73.49
2018-07-06T07:51:16.585Z,64.70
2018-07-06T07:52:16.752Z,71.53
2018-07-06T07:53:16.939Z,63.23
2018-07-06T07:54:17.123Z,62.74
2018-07-06T07:55:17.274Z,68.12
2018-07-06T07:56:17.448Z,57.86
2018-07-06T07:57:17.652Z,68.85
2018-07-06T07:58:17.805Z,62.74
2018-07-06T07:59:17.986Z,62.01
2018-07-06T08:00:18.204Z,67.63
2018-07-06T08:01:18.556Z,65.67
2018-07-06T08:02:18.546Z,65.19
2018-07-06T08:03:18.715Z,64.21
2018-07-06T08:04:18.891Z,83.25
2018-07-06T08:05:19.071Z,72.51
2018-07-06T08:06:19.237Z,64.70
2018-07-06T08:07:19.438Z,62.26
2018-07-06T08:08:19.664Z,65.92
2018-07-06T08:09:19.853Z,62.26
2018-07-06T08:10:20.092Z,66.41
2018-07-06T08:11:20.217Z,61.04
2018-07-06T08:12:20.425Z,67.14
2018-07-06T08:13:20.582Z,61.04
2018-07-06T08:14:20.787Z,77.88
2018-07-06T08:15:20.941Z,65.43
2018-07-06T08:16:21.138Z,76.90
2018-07-06T08:17:21.379Z,74.95
2018-07-06T08:18:21.625Z,75.44
2018-07-06T08:19:21.768Z,78.61
2018-07-06T08:20:21.967Z,68.36
2018-07-06T08:21:22.152Z,64.70
2018-07-06T08:22:22.323Z,62.50
2018-07-06T08:23:22.541Z,71.53
2018-07-06T08:24:22.726Z,59.57
2018-07-06T08:25:22.925Z,63.23
2018-07-06T08:26:23.093Z,66.65
2018-07-06T08:27:23.276Z,67.87
2018-07-06T08:28:23.471Z,66.65
2018-07-06T08:29:23.651Z,76.90
2018-07-06T08:30:23.866Z,65.19
2018-07-06T08:31:24.012Z,60.55
2018-07-06T08:32:24.208Z,59.81
2018-07-06T08:33:24.401Z,69.09
2018-07-06T08:34:24.567Z,74.22
2018-07-06T08:35:24.781Z,69.34
2018-07-06T08:36:24.938Z,64.45
2018-07-06T08:37:25.151Z,61.28
2018-07-06T08:38:25.302Z,63.72
2018-07-06T08:39:25.480Z,70.31
2018-07-06T08:40:25.664Z,63.96
2018-07-06T08:41:25.847Z,63.96
2018-07-06T08:42:26.028Z,66.16
2018-07-06T08:43:26.233Z,68.85
2018-07-06T08:44:26.412Z,66.89
2018-07-06T08:45:26.585Z,68.60
2018-07-06T08:46:26.775Z,64.21
2018-07-06T08:47:26.951Z,64.94
2018-07-06T08:48:27.152Z,62.50
2018-07-06T08:49:27.316Z,63.72
2018-07-06T08:50:27.500Z,64.45
2018-07-06T08:51:27.678Z,62.01
2018-07-06T08:52:27.876Z,61.77
2018-07-06T08:53:28.048Z,60.55
2018-07-06T08:54:28.233Z,64.21
2018-07-06T08:55:28.413Z,63.23
2018-07-06T08:56:28.603Z,59.81
2018-07-06T08:57:28.796Z,62.50
2018-07-06T08:58:29.226Z,60.06
2018-07-06T08:59:29.161Z,60.79
2018-07-06T09:00:29.344Z,64.21
2018-07-06T09:01:29.527Z,63.96
2018-07-06T09:02:29.718Z,61.04
2018-07-06T09:03:29.914Z,65.92
2018-07-06T09:04:30.132Z,61.77
2018-07-06T09:05:30.281Z,66.41
2018-07-06T09:06:30.457Z,64.45
2018-07-06T09:07:30.706Z,65.19
2018-07-06T09:08:30.834Z,67.38
2018-07-06T09:09:31.045Z,62.99
2018-07-06T09:10:31.253Z,65.92
2018-07-06T09:11:31.386Z,66.16
2018-07-06T09:12:31.584Z,61.04
2018-07-06T09:13:31.812Z,68.60
2018-07-06T09:14:32.040Z,68.12
2018-07-06T09:15:32.253Z,62.74
2018-07-06T09:16:32.394Z,59.81
2018-07-06T09:17:32.567Z,83.74
2018-07-06T09:18:32.759Z,65.67
2018-07-06T09:19:33.111Z,70.31
2018-07-06T09:20:33.235Z,65.19
2018-07-06T09:21:33.530Z,61.04
2018-07-06T09:22:33.598Z,69.82
2018-07-06T09:23:33.698Z,63.72
2018-07-06T09:24:33.986Z,65.92
2018-07-06T09:25:34.067Z,61.77
2018-07-06T09:26:34.240Z,62.99
2018-07-06T09:27:34.438Z,60.06
2018-07-06T09:28:34.587Z,63.48
2018-07-06T09:29:34.774Z,62.74
2018-07-06T09:30:34.962Z,63.72
2018-07-06T09:31:35.144Z,59.33
2018-07-06T09:32:35.317Z,63.48
2018-07-06T09:33:35.490Z,61.52
2018-07-06T09:34:35.691Z,62.74
2018-07-06T09:35:35.855Z,70.80
2018-07-06T09:36:36.043Z,67.14
2018-07-06T09:37:36.205Z,71.29
2018-07-06T09:38:36.413Z,62.50
2018-07-06T09:39:36.602Z,58.84
2018-07-06T09:40:36.807Z,62.50
2018-07-06T09:41:36.995Z,60.55
2018-07-06T09:42:37.178Z,61.77
2018-07-06T09:43:37.375Z,59.81
2018-07-06T09:44:37.558Z,64.21
2018-07-06T09:45:37.742Z,64.21
2018-07-06T09:46:37.931Z,62.26
2018-07-06T09:47:38.112Z,66.89
2018-07-06T09:48:38.304Z,62.01
2018-07-06T09:49:38.493Z,64.45
2018-07-06T09:50:38.685Z,63.96
2018-07-06T09:51:38.864Z,69.09
2018-07-06T09:52:39.049Z,60.79
2018-07-06T09:53:39.251Z,60.55
2018-07-06T09:54:39.427Z,59.57
2018-07-06T09:55:39.615Z,68.12
2018-07-06T09:56:39.824Z,68.36
2018-07-06T09:57:39.991Z,65.43
2018-07-06T09:58:40.181Z,62.74
2018-07-06T09:59:40.346Z,62.01
2018-07-06T10:00:40.533Z,62.26
2018-07-06T10:01:40.726Z,78.86
2018-07-06T10:02:40.927Z,80.08
2018-07-06T10:03:41.100Z,79.83
2018-07-06T10:04:41.281Z,79.83
2018-07-06T10:05:41.507Z,80.32
2018-07-06T10:06:41.668Z,77.64
2018-07-06T10:07:41.827Z,61.52
2018-07-06T10:08:42.016Z,60.06
2018-07-06T10:09:42.207Z,63.96
2018-07-06T10:10:42.400Z,79.83
2018-07-06T10:11:42.581Z,73.49
2018-07-06T10:12:42.766Z,59.81
2018-07-06T10:13:42.960Z,57.62
2018-07-06T10:14:43.139Z,61.04
2018-07-06T10:15:43.336Z,62.26
2018-07-06T10:16:43.517Z,66.89
2018-07-06T10:17:43.709Z,63.48
2018-07-06T10:18:43.896Z,67.87
2018-07-06T10:19:44.101Z,66.89
2018-07-06T10:20:44.276Z,63.96
2018-07-06T10:21:44.460Z,63.72
2018-07-06T10:22:44.614Z,65.19
2018-07-06T10:23:44.843Z,62.99
2018-07-06T10:24:45.015Z,58.11
2018-07-06T10:25:45.223Z,72.51
2018-07-06T10:26:45.362Z,63.23
2018-07-06T10:27:45.537Z,68.12
2018-07-06T10:29:45.909Z,62.26
2018-07-06T10:30:46.100Z,72.75
2018-07-06T10:31:46.279Z,67.87
2018-07-06T10:32:46.463Z,62.26
2018-07-06T10:33:46.657Z,63.96
2018-07-06T10:34:46.808Z,65.67
2018-07-06T10:35:47.016Z,60.06
2018-07-06T10:36:47.188Z,65.92
2018-07-06T10:37:47.371Z,65.19
2018-07-06T10:38:47.569Z,62.99
2018-07-06T10:39:47.898Z,59.57
2018-07-06T10:40:47.940Z,62.01
2018-07-06T10:41:48.128Z,60.06
2018-07-06T10:42:48.317Z,63.96
2018-07-06T10:43:48.490Z,65.92
2018-07-06T10:44:48.674Z,66.16
2018-07-06T10:45:48.841Z,72.02
2018-07-06T10:46:49.023Z,64.94
2018-07-06T10:47:49.205Z,59.81
2018-07-06T10:48:49.382Z,72.02
2018-07-06T10:49:49.564Z,72.51
2018-07-06T10:50:49.757Z,69.34
2018-07-06T10:51:49.937Z,66.65
2018-07-06T10:52:50.397Z,64.70
2018-07-06T10:53:50.307Z,73.49
2018-07-06T10:54:50.491Z,67.14
2018-07-06T10:55:50.686Z,64.45
2018-07-06T10:56:50.862Z,74.46
2018-07-06T10:57:51.042Z,68.12
2018-07-06T10:58:51.221Z,74.95
2018-07-06T10:59:51.423Z,76.66
2018-07-06T11:00:51.606Z,63.96
2018-07-06T11:01:51.789Z,65.92
2018-07-06T11:02:51.976Z,61.28
2018-07-06T11:03:52.161Z,67.14
2018-07-06T11:04:52.413Z,68.85
2018-07-06T11:05:52.532Z,64.45
2018-07-06T11:06:52.841Z,66.41
2018-07-06T11:07:52.909Z,64.94
2018-07-06T11:08:53.102Z,67.38
2018-07-06T11:09:53.275Z,71.04
2018-07-06T11:10:53.453Z,60.79
2018-07-06T11:11:53.652Z,64.45
2018-07-06T11:12:53.842Z,64.45
2018-07-06T11:13:54.042Z,70.31
2018-07-06T11:14:54.210Z,65.19
2018-07-06T11:15:54.399Z,66.65
2018-07-06T11:16:54.570Z,78.13
2018-07-06T11:17:54.769Z,65.19
2018-07-06T11:18:54.950Z,64.70
2018-07-06T11:19:55.143Z,63.48
2018-07-06T11:20:55.333Z,68.36
2018-07-06T11:21:55.505Z,64.94
2018-07-06T11:22:55.743Z,71.29
2018-07-06T11:23:56.074Z,71.78
2018-07-06T11:24:56.004Z,67.63
2018-07-06T11:25:56.210Z,70.31
2018-07-06T11:26:56.396Z,71.04
2018-07-06T11:27:56.599Z,68.36
2018-07-06T11:28:56.783Z,78.61
2018-07-06T11:29:56.967Z,73.24
2018-07-06T11:30:57.138Z,65.43
2018-07-06T11:31:57.320Z,77.64
2018-07-06T11:32:57.497Z,73.24
2018-07-06T11:33:57.681Z,69.09
2018-07-06T11:34:57.884Z,66.65
2018-07-06T11:35:58.059Z,64.21
2018-07-06T11:36:58.247Z,65.92
2018-07-06T11:37:58.529Z,69.09
2018-07-06T11:38:58.627Z,67.14
2018-07-06T11:39:58.817Z,67.38
2018-07-06T11:40:58.992Z,75.44
2018-07-06T11:41:59.196Z,67.38
2018-07-06T11:42:59.385Z,64.21
2018-07-06T11:43:59.564Z,59.08
2018-07-06T11:44:59.827Z,70.31
2018-07-06T11:45:59.926Z,74.71
2018-07-06T11:47:00.104Z,67.63
2018-07-06T11:48:00.350Z,64.70
2018-07-06T11:49:00.473Z,68.85
2018-07-06T11:50:00.743Z,62.50
2018-07-06T11:51:00.830Z,65.43
2018-07-06T11:52:01.007Z,58.59
2018-07-06T11:53:01.181Z,65.43
2018-07-06T11:54:01.367Z,66.41
2018-07-06T11:55:01.541Z,62.74
2018-07-06T11:56:01.744Z,63.96
2018-07-06T11:57:01.893Z,59.81
2018-07-06T11:58:02.118Z,69.58
2018-07-06T11:59:02.270Z,71.04
2018-07-06T12:00:02.497Z,66.65
2018-07-06T12:01:02.649Z,62.01
2018-07-06T12:02:02.814Z,56.15
2018-07-06T12:03:02.991Z,64.70
2018-07-06T12:04:03.225Z,76.42
2018-07-06T12:05:03.579Z,64.21
2018-07-06T12:06:03.527Z,61.77
2018-07-06T12:07:03.711Z,65.43
2018-07-06T12:08:03.892Z,64.70
2018-07-06T12:09:04.080Z,88.38
2018-07-06T12:10:04.266Z,60.06
2018-07-06T12:11:04.446Z,65.19
2018-07-06T12:12:04.645Z,68.60
2018-07-06T12:13:04.798Z,65.43
2018-07-06T12:14:04.976Z,66.16
2018-07-06T12:15:05.156Z,69.82
2018-07-06T12:16:05.321Z,66.65
2018-07-06T12:17:05.532Z,75.68
2018-07-06T12:18:05.715Z,63.48
2018-07-06T12:19:05.907Z,68.36
2018-07-06T12:20:06.077Z,64.45
2018-07-06T12:21:06.357Z,71.53
2018-07-06T12:22:06.460Z,63.23
2018-07-06T12:23:06.640Z,70.31
2018-07-06T12:24:06.834Z,77.15
2018-07-06T12:25:07.015Z,81.79
2018-07-06T12:26:07.187Z,69.34
2018-07-06T12:27:07.377Z,67.14
2018-07-06T12:28:07.579Z,72.51
2018-07-06T12:29:07.841Z,63.48
2018-07-06T12:30:07.954Z,72.02
2018-07-06T12:31:08.133Z,79.35
2018-07-06T12:32:08.323Z,76.90
2018-07-06T12:33:08.496Z,74.22
2018-07-06T12:34:08.671Z,80.08
2018-07-06T12:35:08.853Z,87.65
2018-07-06T12:36:09.026Z,74.22
2018-07-06T12:37:09.214Z,63.96
2018-07-06T12:38:09.393Z,66.65
2018-07-06T12:39:09.573Z,70.56
2018-07-06T12:40:09.741Z,67.14
2018-07-06T12:41:09.935Z,66.89
2018-07-06T12:42:10.116Z,64.21
2018-07-06T12:43:10.297Z,61.28
2018-07-06T12:44:10.488Z,67.63
2018-07-06T12:45:10.688Z,64.21
2018-07-06T12:46:10.866Z,76.42
2018-07-06T12:47:11.085Z,69.09
2018-07-06T12:48:11.232Z,70.80
2018-07-06T12:49:11.425Z,64.21
2018-07-06T12:50:11.616Z,67.63
2018-07-06T12:51:11.811Z,72.51
2018-07-06T12:52:11.982Z,64.70
2018-07-06T12:53:12.175Z,67.87
2018-07-06T12:54:12.351Z,64.70
2018-07-06T12:55:12.538Z,59.81
2018-07-06T12:56:12.716Z,59.81
2018-07-06T12:57:12.876Z,65.19
2018-07-06T12:58:13.184Z,76.17
2018-07-06T12:59:13.288Z,69.58